createdAt,value
2022-08-25T00:02:00.991Z,100650.56
2022-08-25T00:04:30.147Z,100646.03
2022-08-25T00:07:02.213Z,100653.91
2022-08-25T00:09:30.803Z,100649.78
2022-08-25T00:11:58.568Z,100636.63
2022-08-25T00:14:29.269Z,100650.09
2022-08-25T00:16:56.640Z,100642.59
2022-08-25T00:19:27.428Z,100633.66
2022-08-25T00:21:55.894Z,100633.03
2022-08-25T00:24:23.478Z,100622.31
2022-08-25T00:26:54.115Z,100639.25
2022-08-25T00:29:22.394Z,100637.72
2022-08-25T00:31:49.333Z,100629.59
2022-08-25T00:34:26.231Z,100626.34
2022-08-25T00:36:53.194Z,100629.31
2022-08-25T00:39:22.002Z,100630.00
2022-08-25T00:41:50.382Z,100616.59
2022-08-25T00:44:18.440Z,100619.03
2022-08-25T00:46:52.489Z,100619.31
2022-08-25T00:49:42.500Z,100609.91
2022-08-25T00:52:12.474Z,100619.84
2022-08-25T00:54:42.250Z,100610.41
2022-08-25T00:57:12.937Z,100613.94
2022-08-25T00:59:40.693Z,100605.38
2022-08-25T01:02:10.275Z,100622.69
2022-08-25T01:04:44.723Z,100620.56
2022-08-25T01:07:18.720Z,100619.00
2022-08-25T01:09:48.209Z,100620.13
2022-08-25T01:12:15.398Z,100623.31
2022-08-25T01:14:43.139Z,100612.72
2022-08-25T01:17:10.507Z,100627.09
2022-08-25T01:19:37.556Z,100624.38
2022-08-25T01:22:05.678Z,100629.09
2022-08-25T01:24:52.776Z,100628.62
2022-08-25T01:27:19.585Z,100619.84
2022-08-25T01:29:46.486Z,100617.84
2022-08-25T01:32:14.917Z,100621.41
2022-08-25T01:34:44.411Z,100616.81
2022-08-25T01:37:14.027Z,100617.66
2022-08-25T01:39:41.777Z,100613.97
2022-08-25T01:42:18.050Z,100617.53
2022-08-25T01:44:46.145Z,100613.97
2022-08-25T01:47:14.128Z,100608.50
2022-08-25T01:49:41.065Z,100609.66
2022-08-25T01:52:33.393Z,100593.72
2022-08-25T01:55:00.310Z,100609.19
2022-08-25T01:57:30.195Z,100607.81
2022-08-25T01:59:57.934Z,100603.88
2022-08-25T02:02:26.271Z,100617.69
2022-08-25T02:04:53.422Z,100616.16
2022-08-25T02:07:20.416Z,100616.28
2022-08-25T02:09:47.486Z,100609.87
2022-08-25T02:12:15.460Z,100616.44
2022-08-25T02:14:42.384Z,100616.19
2022-08-25T02:17:09.816Z,100619.50
2022-08-25T02:19:36.790Z,100624.09
2022-08-25T02:22:04.409Z,100608.47
2022-08-25T02:24:31.652Z,100620.16
2022-08-25T02:26:59.395Z,100617.84
2022-08-25T02:29:26.463Z,100613.50
2022-08-25T02:31:53.292Z,100613.22
2022-08-25T02:34:20.180Z,100609.03
2022-08-25T02:36:47.060Z,100601.72
2022-08-25T02:39:13.944Z,100599.00
2022-08-25T02:41:40.952Z,100587.09
2022-08-25T02:44:08.626Z,100600.94
2022-08-25T02:46:36.641Z,100602.50
2022-08-25T02:49:05.001Z,100604.81
2022-08-25T02:51:33.617Z,100608.12
2022-08-25T02:54:02.388Z,100606.13
2022-08-25T02:56:30.659Z,100613.31
2022-08-25T02:58:57.788Z,100611.13
2022-08-25T03:01:28.646Z,100606.72
2022-08-25T03:03:56.189Z,100601.00
2022-08-25T03:06:24.263Z,100607.44
2022-08-25T03:08:52.546Z,100611.59
2022-08-25T03:11:19.761Z,100611.78
2022-08-25T03:13:46.828Z,100605.03
2022-08-25T03:16:14.562Z,100583.56
2022-08-25T03:18:42.352Z,100606.84
2022-08-25T03:21:11.474Z,100605.84
2022-08-25T03:23:40.048Z,100608.56
2022-08-25T03:26:25.834Z,100605.75
2022-08-25T03:28:54.772Z,100610.16
2022-08-25T03:31:23.079Z,100607.88
2022-08-25T03:33:49.986Z,100612.28
2022-08-25T03:36:16.862Z,100607.97
2022-08-25T03:38:43.739Z,100611.69
2022-08-25T03:41:18.629Z,100602.53
2022-08-25T03:43:45.456Z,100597.78
2022-08-25T03:46:27.197Z,100600.09
2022-08-25T03:48:54.555Z,100602.81
2022-08-25T03:51:26.493Z,100600.09
2022-08-25T03:53:53.680Z,100605.69
2022-08-25T03:56:20.630Z,100611.13
2022-08-25T03:58:47.892Z,100599.72
2022-08-25T04:01:16.057Z,100604.84
2022-08-25T04:03:45.586Z,100602.81
2022-08-25T04:06:13.282Z,100602.13
2022-08-25T04:08:40.205Z,100599.81
2022-08-25T04:11:15.697Z,100597.09
2022-08-25T04:13:42.624Z,100604.81
2022-08-25T04:16:14.329Z,100601.34
2022-08-25T04:18:42.409Z,100598.34
2022-08-25T04:21:10.566Z,100599.09
2022-08-25T04:23:38.509Z,100610.25
2022-08-25T04:26:13.603Z,100608.53
2022-08-25T04:28:40.989Z,100606.37
2022-08-25T04:31:09.461Z,100605.34
2022-08-25T04:33:37.129Z,100588.19
2022-08-25T04:36:11.469Z,100599.91
2022-08-25T04:38:40.251Z,100603.47
2022-08-25T04:41:07.968Z,100610.47
2022-08-25T04:43:36.352Z,100604.72
2022-08-25T04:46:08.550Z,100607.38
2022-08-25T04:48:37.013Z,100601.03
2022-08-25T04:51:10.061Z,100596.94
2022-08-25T04:53:37.614Z,100593.91
2022-08-25T04:56:14.385Z,100591.78
2022-08-25T04:58:42.090Z,100575.16
2022-08-25T05:01:17.764Z,100582.56
2022-08-25T05:03:46.727Z,100581.69
2022-08-25T05:06:16.277Z,100561.06
2022-08-25T05:08:45.658Z,100544.50
2022-08-25T05:11:14.911Z,100530.62
2022-08-25T05:13:43.123Z,100519.25
2022-08-25T05:16:11.577Z,100517.81
2022-08-25T05:18:38.899Z,100532.19
2022-08-25T05:21:08.339Z,100536.31
2022-08-25T05:23:36.180Z,100527.59
2022-08-25T05:26:16.527Z,100523.75
2022-08-25T05:28:47.452Z,100518.97
2022-08-25T05:31:14.944Z,100547.84
2022-08-25T05:33:42.341Z,100553.34
2022-08-25T05:36:10.905Z,100556.94
2022-08-25T05:38:38.069Z,100563.00
2022-08-25T05:41:10.624Z,100556.09
2022-08-25T05:43:39.843Z,100562.34
2022-08-25T05:46:08.143Z,100579.25
2022-08-25T05:48:35.536Z,100578.22
2022-08-25T05:51:03.821Z,100574.28
2022-08-25T05:53:31.133Z,100576.97
2022-08-25T05:56:01.155Z,100583.56
2022-08-25T05:58:30.068Z,100565.44
2022-08-25T06:00:58.310Z,100563.81
2022-08-25T06:03:25.311Z,100571.50
2022-08-25T06:05:52.208Z,100568.97
2022-08-25T06:08:19.578Z,100573.22
2022-08-25T06:10:52.535Z,100580.50
2022-08-25T06:13:19.386Z,100556.56
2022-08-25T06:15:59.805Z,100579.59
2022-08-25T06:18:27.181Z,100564.16
2022-08-25T06:20:54.004Z,100570.97
2022-08-25T06:23:20.885Z,100562.03
2022-08-25T06:25:54.404Z,100572.81
2022-08-25T06:28:21.327Z,100566.09
2022-08-25T06:30:48.245Z,100578.72
2022-08-25T06:33:15.626Z,100576.22
2022-08-25T06:35:43.708Z,100571.59
2022-08-25T06:38:11.361Z,100566.31
2022-08-25T06:40:38.670Z,100581.53
2022-08-25T06:43:08.874Z,100585.78
2022-08-25T06:45:35.748Z,100563.38
2022-08-25T06:48:02.887Z,100555.03
2022-08-25T06:50:29.845Z,100555.31
2022-08-25T06:52:57.069Z,100560.91
2022-08-25T06:55:24.049Z,100555.75
2022-08-25T06:57:54.074Z,100556.16
2022-08-25T07:00:22.953Z,100556.72
2022-08-25T07:02:58.578Z,100550.66
2022-08-25T07:05:33.607Z,100544.56
2022-08-25T07:08:07.657Z,100550.81
2022-08-25T07:10:34.559Z,100550.91
2022-08-25T07:13:03.625Z,100553.59
2022-08-25T07:15:30.416Z,100546.38
2022-08-25T07:17:57.862Z,100538.81
2022-08-25T07:22:56.983Z,100535.25
2022-08-25T07:25:24.412Z,100545.25
2022-08-25T07:27:53.853Z,100532.28
2022-08-25T07:30:24.052Z,100524.09
2022-08-25T07:32:54.905Z,100523.19
2022-08-25T07:35:26.450Z,100519.00
2022-08-25T07:38:04.575Z,100508.37
2022-08-25T07:40:34.271Z,100523.19
2022-08-25T07:43:05.352Z,100520.34
2022-08-25T07:45:37.064Z,100519.13
2022-08-25T07:48:14.368Z,100518.06
2022-08-25T07:50:46.185Z,100522.31
2022-08-25T07:53:14.368Z,100537.09
2022-08-25T07:55:41.968Z,100544.12
2022-08-25T07:58:12.364Z,100530.59
2022-08-25T08:00:40.578Z,100525.44
2022-08-25T08:03:19.748Z,100515.31
2022-08-25T08:05:57.451Z,100521.84
2022-08-25T08:08:24.450Z,100513.09
2022-08-25T08:11:04.700Z,100509.59
2022-08-25T08:13:35.770Z,100508.06
2022-08-25T08:16:09.836Z,100491.09
2022-08-25T08:18:38.294Z,100494.31
2022-08-25T08:21:05.618Z,100480.13
2022-08-25T08:23:33.553Z,100478.94
2022-08-25T08:26:00.774Z,100469.69
2022-08-25T08:28:28.137Z,100492.81
2022-08-25T08:30:55.080Z,100490.72
2022-08-25T08:33:24.196Z,100478.22
2022-08-25T08:35:59.037Z,100489.75
2022-08-25T08:38:27.108Z,100471.69
2022-08-25T08:42:09.507Z,100475.31
2022-08-25T08:44:59.205Z,100451.22
2022-08-25T08:47:41.909Z,100468.59
2022-08-25T08:50:27.635Z,100452.50
2022-08-25T08:53:11.918Z,100433.44
2022-08-25T08:55:48.328Z,100434.00
2022-08-25T08:58:35.519Z,100435.62
2022-08-25T09:01:03.361Z,100420.22
2022-08-25T09:03:55.307Z,100425.25
2022-08-25T09:06:49.609Z,100433.66
2022-08-25T09:09:29.246Z,100445.31
2022-08-25T09:11:58.737Z,100420.47
2022-08-25T09:14:41.520Z,100436.31
2022-08-25T09:17:23.199Z,100427.47
2022-08-25T09:19:53.452Z,100426.16
2022-08-25T09:22:35.478Z,100402.56
2022-08-25T09:25:48.702Z,100407.34
2022-08-25T09:28:18.759Z,100398.22
2022-08-25T09:31:00.886Z,100399.53
2022-08-25T09:33:29.448Z,100386.56
2022-08-25T09:35:57.689Z,100398.50
2022-08-25T09:38:26.711Z,100347.53
2022-08-25T09:41:00.922Z,100374.91
2022-08-25T09:43:32.045Z,100378.38
2022-08-25T09:46:12.697Z,100369.81
2022-08-25T09:48:44.821Z,100363.31
2022-08-25T09:51:37.959Z,100362.72
2022-08-25T09:54:15.728Z,100386.59
2022-08-25T09:56:57.683Z,100381.88
2022-08-25T09:59:34.909Z,100361.75
2022-08-25T10:02:25.813Z,100346.28
2022-08-25T10:04:53.222Z,100374.34
2022-08-25T10:07:26.867Z,100357.12
2022-08-25T10:10:03.022Z,100340.25
2022-08-25T10:12:36.547Z,100323.69
2022-08-25T10:15:29.422Z,100358.75
2022-08-25T10:18:25.817Z,100342.22
2022-08-25T10:21:12.632Z,100343.19
2022-08-25T10:23:46.415Z,100325.25
2022-08-25T10:26:27.875Z,100336.44
2022-08-25T10:29:06.989Z,100310.47
2022-08-25T10:31:45.517Z,100285.59
2022-08-25T10:34:40.253Z,100313.06
2022-08-25T10:37:19.299Z,100300.38
2022-08-25T10:40:02.840Z,100285.63
2022-08-25T10:42:31.322Z,100268.09
2022-08-25T10:45:32.311Z,100263.44
2022-08-25T10:48:20.443Z,100258.47
2022-08-25T10:51:14.587Z,100254.34
2022-08-25T10:53:56.224Z,100270.00
2022-08-25T10:56:28.014Z,100252.94
2022-08-25T10:59:13.667Z,100271.47
2022-08-25T11:01:57.015Z,100309.81
2022-08-25T11:04:45.271Z,100286.69
2022-08-25T11:07:23.263Z,100282.06
2022-08-25T11:09:53.271Z,100262.19
2022-08-25T11:12:46.110Z,100255.62
2022-08-25T11:15:23.141Z,100246.94
2022-08-25T11:18:04.331Z,100265.22
2022-08-25T11:21:08.659Z,100259.28
2022-08-25T11:23:36.862Z,100251.53
2022-08-25T11:26:14.089Z,100259.69
2022-08-25T11:29:06.035Z,100259.03
2022-08-25T11:31:40.976Z,100246.22
2022-08-25T11:34:15.226Z,100257.56
2022-08-25T11:36:53.163Z,100265.19
2022-08-25T11:39:55.028Z,100247.63
2022-08-25T11:42:29.223Z,100252.56
2022-08-25T11:45:38.001Z,100247.63
2022-08-25T11:48:42.570Z,100220.56
2022-08-25T11:51:12.971Z,100225.06
2022-08-25T11:53:42.529Z,100207.72
2022-08-25T11:56:12.652Z,100220.78
2022-08-25T11:58:40.639Z,100224.03
2022-08-25T12:01:40.162Z,100216.72
2022-08-25T12:04:42.183Z,100209.91
2022-08-25T12:07:13.645Z,100216.37
2022-08-25T12:09:50.069Z,100223.66
2022-08-25T12:12:41.483Z,100206.00
2022-08-25T12:15:28.031Z,100214.19
2022-08-25T12:18:45.573Z,100206.94
2022-08-25T12:21:14.409Z,100200.56
2022-08-25T12:24:10.908Z,100199.91
2022-08-25T12:26:46.057Z,100194.94
2022-08-25T12:29:21.444Z,100177.81
2022-08-25T12:31:59.175Z,100181.34
2022-08-25T12:34:31.553Z,100195.34
2022-08-25T12:37:06.388Z,100198.28
2022-08-25T12:39:37.819Z,100177.47
2022-08-25T12:42:06.927Z,100186.31
2022-08-25T12:44:40.287Z,100180.97
2022-08-25T12:47:23.455Z,100192.50
2022-08-25T12:49:50.919Z,100180.84
2022-08-25T12:52:28.111Z,100181.97
2022-08-25T12:54:59.908Z,100181.75
2022-08-25T12:57:43.599Z,100184.44
2022-08-25T13:00:23.637Z,100183.22
2022-08-25T13:03:32.271Z,100175.34
2022-08-25T13:06:23.821Z,100174.09
2022-08-25T13:09:17.326Z,100174.59
2022-08-25T13:11:53.859Z,100161.97
2022-08-25T13:17:05.437Z,100168.31
2022-08-25T13:19:34.587Z,100173.19
2022-08-25T13:22:16.379Z,100170.34
2022-08-25T13:24:47.312Z,100168.91
2022-08-25T13:27:27.935Z,100173.44
2022-08-25T13:29:59.855Z,100169.31
2022-08-25T13:32:35.103Z,100159.97
2022-08-25T13:35:14.903Z,100174.22
2022-08-25T13:37:44.701Z,100161.59
2022-08-25T13:40:18.794Z,100159.59
2022-08-25T13:42:55.960Z,100146.59
2022-08-25T13:45:26.779Z,100155.31
2022-08-25T13:47:55.911Z,100169.81
2022-08-25T13:50:26.461Z,100151.53
2022-08-25T13:53:07.095Z,100146.16
2022-08-25T13:55:50.886Z,100132.88
2022-08-25T13:58:38.531Z,100172.75
2022-08-25T14:01:22.181Z,100170.06
2022-08-25T14:04:24.251Z,100176.81
2022-08-25T14:07:22.384Z,100166.69
2022-08-25T14:10:10.604Z,100171.75
2022-08-25T14:12:45.099Z,100171.50
2022-08-25T14:15:17.937Z,100163.56
2022-08-25T14:17:49.108Z,100161.56
2022-08-25T14:20:22.352Z,100161.00
2022-08-25T14:22:54.040Z,100156.00
2022-08-25T14:25:20.852Z,100156.31
2022-08-25T14:28:07.540Z,100162.69
2022-08-25T14:30:36.894Z,100144.34
2022-08-25T14:33:04.038Z,100151.94
2022-08-25T14:35:31.823Z,100152.47
2022-08-25T14:37:58.708Z,100156.03
2022-08-25T14:40:25.658Z,100153.22
2022-08-25T14:42:52.636Z,100147.41
2022-08-25T14:45:19.689Z,100154.00
2022-08-25T14:47:49.734Z,100138.44
2022-08-25T14:50:20.044Z,100152.31
2022-08-25T14:52:48.352Z,100154.84
2022-08-25T14:55:31.259Z,100151.47
2022-08-25T14:57:58.981Z,100153.19
2022-08-25T15:00:26.322Z,100164.78
2022-08-25T15:02:54.892Z,100167.91
2022-08-25T15:05:25.723Z,100181.56
2022-08-25T15:08:13.291Z,100181.31
2022-08-25T15:10:40.763Z,100191.00
2022-08-25T15:13:08.649Z,100184.50
2022-08-25T15:15:39.422Z,100197.50
2022-08-25T15:18:20.540Z,100192.81
2022-08-25T15:20:47.639Z,100190.31
2022-08-25T15:23:18.626Z,100190.03
2022-08-25T15:25:46.789Z,100187.13
2022-08-25T15:28:17.431Z,100194.16
2022-08-25T15:30:45.826Z,100195.41
2022-08-25T15:33:13.939Z,100194.94
2022-08-25T15:35:41.122Z,100199.81
2022-08-25T15:38:08.370Z,100200.44
2022-08-25T15:40:37.683Z,100184.81
2022-08-25T15:43:05.740Z,100188.47
2022-08-25T15:45:36.080Z,100185.19
2022-08-25T15:48:06.727Z,100196.34
2022-08-25T15:50:36.290Z,100192.22
2022-08-25T15:53:03.297Z,100194.53
2022-08-25T15:55:30.446Z,100187.84
2022-08-25T15:58:00.810Z,100192.06
2022-08-25T16:00:27.727Z,100191.56
2022-08-25T16:02:58.759Z,100184.03
2022-08-25T16:05:26.271Z,100183.88
2022-08-25T16:07:54.041Z,100181.47
2022-08-25T16:10:21.124Z,100181.31
2022-08-25T16:12:48.802Z,100176.03
2022-08-25T16:15:16.071Z,100175.63
2022-08-25T16:17:45.948Z,100171.03
2022-08-25T16:20:17.289Z,100165.50
2022-08-25T16:22:45.124Z,100166.22
2022-08-25T16:25:12.154Z,100178.41
2022-08-25T16:27:39.305Z,100168.66
2022-08-25T16:30:14.935Z,100168.75
2022-08-25T16:32:44.118Z,100189.69
2022-08-25T16:35:11.459Z,100186.56
2022-08-25T16:37:38.334Z,100190.19
2022-08-25T16:40:08.353Z,100199.34
2022-08-25T16:42:35.631Z,100206.78
2022-08-25T16:45:02.493Z,100202.16
2022-08-25T16:47:37.109Z,100212.50
2022-08-25T16:50:08.924Z,100206.66
2022-08-25T16:52:56.542Z,100211.59
2022-08-25T16:55:25.745Z,100216.31
2022-08-25T16:57:54.315Z,100214.91
2022-08-25T17:00:23.955Z,100221.75
2022-08-25T17:02:54.991Z,100229.25
2022-08-25T17:05:21.994Z,100226.72
2022-08-25T17:08:09.079Z,100232.12
2022-08-25T17:10:39.494Z,100233.19
2022-08-25T17:13:06.801Z,100234.97
2022-08-25T17:15:34.180Z,100233.28
2022-08-25T17:18:01.062Z,100237.34
2022-08-25T17:20:29.137Z,100241.22
2022-08-25T17:22:55.998Z,100235.94
2022-08-25T17:25:22.872Z,100234.88
2022-08-25T17:27:54.462Z,100242.94
2022-08-25T17:30:21.313Z,100234.06
2022-08-25T17:32:50.972Z,100240.47
2022-08-25T17:35:18.026Z,100244.69
2022-08-25T17:37:45.350Z,100244.72
2022-08-25T17:40:17.501Z,100245.78
2022-08-25T17:42:44.952Z,100243.87
2022-08-25T17:45:11.817Z,100240.50
2022-08-25T17:47:38.733Z,100255.72
2022-08-25T17:50:06.180Z,100255.53
2022-08-25T17:52:33.371Z,100257.44
2022-08-25T17:55:00.179Z,100255.53
2022-08-25T17:57:27.491Z,100255.72
2022-08-25T17:59:54.420Z,100254.44
2022-08-25T18:02:21.314Z,100255.69
2022-08-25T18:04:48.678Z,100252.06
2022-08-25T18:07:15.516Z,100256.94
2022-08-25T18:09:44.129Z,100256.06
2022-08-25T18:12:12.594Z,100264.56
2022-08-25T18:14:39.455Z,100267.91
2022-08-25T18:17:06.397Z,100265.75
2022-08-25T18:19:33.629Z,100272.44
2022-08-25T18:22:04.307Z,100278.72
2022-08-25T18:24:31.310Z,100276.31
2022-08-25T18:26:58.914Z,100280.72
2022-08-25T18:29:26.170Z,100280.87
2022-08-25T18:31:58.325Z,100286.59
2022-08-25T18:34:27.293Z,100277.25
2022-08-25T18:36:58.790Z,100278.25
2022-08-25T18:39:44.179Z,100288.94
2022-08-25T18:42:11.296Z,100285.47
2022-08-25T18:44:38.355Z,100294.75
2022-08-25T18:47:07.473Z,100274.16
2022-08-25T18:49:35.194Z,100292.00
2022-08-25T18:52:02.044Z,100298.19
2022-08-25T18:54:28.855Z,100280.91
2022-08-25T18:56:57.206Z,100282.22
2022-08-25T18:59:24.328Z,100285.47
2022-08-25T19:01:53.743Z,100276.22
2022-08-25T19:04:20.810Z,100277.50
2022-08-25T19:06:55.492Z,100289.97
2022-08-25T19:09:22.572Z,100284.78
2022-08-25T19:11:49.500Z,100264.34
2022-08-25T19:14:16.720Z,100272.13
2022-08-25T19:16:45.410Z,100269.88
2022-08-25T19:19:13.590Z,100273.41
2022-08-25T19:21:41.970Z,100287.34
2022-08-25T19:24:11.588Z,100277.25
2022-08-25T19:26:39.638Z,100270.53
2022-08-25T19:29:10.908Z,100267.59
2022-08-25T19:31:39.285Z,100261.53
2022-08-25T19:34:07.327Z,100258.13
2022-08-25T19:36:34.224Z,100272.41
2022-08-25T19:39:01.519Z,100267.97
2022-08-25T19:41:31.223Z,100271.41
2022-08-25T19:43:59.459Z,100278.31
2022-08-25T19:46:32.757Z,100280.41
2022-08-25T19:49:09.019Z,100274.16
2022-08-25T19:51:45.274Z,100291.16
2022-08-25T19:54:14.449Z,100284.94
2022-08-25T19:56:43.947Z,100285.47
2022-08-25T19:59:40.698Z,100278.88
2022-08-25T20:02:19.238Z,100279.28
2022-08-25T20:04:49.245Z,100284.94
2022-08-25T20:07:19.001Z,100276.25
2022-08-25T20:09:46.042Z,100266.81
2022-08-25T20:14:46.781Z,100278.22
2022-08-25T20:17:24.026Z,100262.38
2022-08-25T20:19:55.449Z,100273.22
2022-08-25T20:22:26.114Z,100280.13
2022-08-25T20:24:58.090Z,100273.12
2022-08-25T20:27:47.032Z,100275.75
2022-08-25T20:30:18.304Z,100276.50
2022-08-25T20:32:45.855Z,100276.69
2022-08-25T20:35:14.374Z,100276.22
2022-08-25T20:37:44.135Z,100270.78
2022-08-25T20:40:13.626Z,100291.37
2022-08-25T20:42:40.934Z,100285.16
2022-08-25T20:45:11.256Z,100275.34
2022-08-25T20:47:38.266Z,100285.97
2022-08-25T20:50:07.410Z,100279.53
2022-08-25T20:52:34.627Z,100296.16
2022-08-25T20:55:01.978Z,100286.91
2022-08-25T20:57:28.911Z,100294.63
2022-08-25T20:59:56.982Z,100283.16
2022-08-25T21:02:24.417Z,100288.47
2022-08-25T21:04:52.150Z,100285.28
2022-08-25T21:07:19.916Z,100291.13
2022-08-25T21:09:47.854Z,100282.44
2022-08-25T21:12:14.908Z,100280.69
2022-08-25T21:14:43.848Z,100267.63
2022-08-25T21:17:15.454Z,100278.84
2022-08-25T21:22:18.587Z,100281.44
2022-08-25T21:24:45.986Z,100281.66
2022-08-25T21:27:13.329Z,100283.12
2022-08-25T21:29:50.678Z,100277.13
2022-08-25T21:32:22.288Z,100277.22
2022-08-25T21:34:56.230Z,100277.22
2022-08-25T21:37:24.202Z,100270.97
2022-08-25T21:39:51.936Z,100277.28
2022-08-25T21:42:20.528Z,100282.38
2022-08-25T21:44:47.448Z,100277.47
2022-08-25T21:47:14.261Z,100279.41
2022-08-25T21:49:41.558Z,100275.03
2022-08-25T21:52:08.457Z,100267.66
2022-08-25T21:54:35.379Z,100260.47
2022-08-25T21:57:04.417Z,100257.37
2022-08-25T21:59:33.979Z,100262.19
2022-08-25T22:02:03.916Z,100265.41
2022-08-25T22:04:32.015Z,100263.56
2022-08-25T22:06:59.598Z,100266.19
2022-08-25T22:09:28.258Z,100267.72
2022-08-25T22:11:55.923Z,100265.34
2022-08-25T22:14:23.853Z,100266.06
2022-08-25T22:16:54.169Z,100263.13
2022-08-25T22:19:21.559Z,100267.63
2022-08-25T22:21:50.978Z,100259.53
2022-08-25T22:24:18.886Z,100263.47
2022-08-25T22:26:47.721Z,100262.66
2022-08-25T22:29:25.185Z,100268.94
2022-08-25T22:31:59.641Z,100251.09
2022-08-25T22:34:32.673Z,100258.41
2022-08-25T22:37:04.604Z,100265.22
2022-08-25T22:39:34.283Z,100267.06
2022-08-25T22:42:02.831Z,100253.09
2022-08-25T22:44:30.104Z,100258.28
2022-08-25T22:46:57.013Z,100259.81
2022-08-25T22:49:23.894Z,100253.66
2022-08-25T22:51:51.109Z,100258.47
2022-08-25T22:54:20.609Z,100247.69
2022-08-25T22:56:47.437Z,100255.19
2022-08-25T22:59:14.646Z,100256.91
2022-08-25T23:01:43.857Z,100253.00
2022-08-25T23:04:11.095Z,100252.50
2022-08-25T23:06:38.267Z,100250.94
2022-08-25T23:09:07.393Z,100249.56
2022-08-25T23:11:35.694Z,100255.59
2022-08-25T23:14:08.312Z,100259.03
2022-08-25T23:16:35.425Z,100255.41
2022-08-25T23:19:02.302Z,100242.78
2022-08-25T23:21:47.747Z,100250.19
2022-08-25T23:24:29.917Z,100249.34
2022-08-25T23:27:02.937Z,100241.88
2022-08-25T23:29:31.846Z,100248.66
2022-08-25T23:31:58.963Z,100242.00
2022-08-25T23:34:26.302Z,100239.94
2022-08-25T23:36:53.445Z,100240.25
2022-08-25T23:39:21.801Z,100238.94
2022-08-25T23:41:49.895Z,100244.94
2022-08-25T23:44:18.763Z,100244.37
2022-08-25T23:46:47.191Z,100233.28
2022-08-25T23:49:18.381Z,100243.16
2022-08-25T23:51:47.471Z,100242.00
2022-08-25T23:54:14.771Z,100243.66
2022-08-25T23:56:44.842Z,100225.81
2022-08-25T23:59:24.770Z,100233.28
